Time;durP1;ratioP1;P1;durP2;ratioP2;P2;SDS_P1;SDS_P2;PMS_P1;PMS_P2;Temp;Humidity;BMP_temperature;BMP_pressure;BME280_temperature;BME280_humidity;BME280_pressure;Samples;Min_cycle;Max_cycle;Signal;HPM_P1;HPM_P2
2023/07/03 00:01:46;;;;;;;14.07;8.50;;;13.80;99.90;;;;;;8269577;28;20180;-65
2023/07/03 00:05:48;;;;;;;11.93;8.93;;;13.80;99.90;;;;;;8268334;28;20271;-65
2023/07/03 00:09:49;;;;;;;11.80;8.30;;;13.80;99.90;;;;;;8264144;28;20214;-66
2023/07/03 00:13:50;;;;;;;13.03;8.73;;;13.80;99.90;;;;;;8271960;28;20191;-65
2023/07/03 00:17:51;;;;;;;12.60;8.00;;;13.90;99.90;;;;;;8269538;28;20190;-64
2023/07/03 00:21:58;;;;;;;9.80;7.47;;;14.00;99.90;;;;;;8271696;28;20214;-66
2023/07/03 00:26:01;;;;;;;12.63;7.90;;;14.00;99.90;;;;;;8275727;28;20205;-65
2023/07/03 00:30:03;;;;;;;9.90;7.73;;;13.90;99.90;;;;;;8288719;28;20222;-65
2023/07/03 00:34:03;;;;;;;11.17;8.30;;;13.80;99.90;;;;;;8270362;28;20200;-65
2023/07/03 00:38:04;;;;;;;14.47;9.07;;;13.70;99.90;;;;;;8274979;28;20202;-65
2023/07/03 00:42:06;;;;;;;14.57;9.17;;;13.60;99.90;;;;;;8269060;28;20206;-65
2023/07/03 00:46:09;;;;;;;11.80;8.47;;;13.50;99.90;;;;;;8286591;28;20284;-65
2023/07/03 00:50:13;;;;;;;11.03;8.53;;;13.40;99.90;;;;;;8277678;28;20363;-64
2023/07/03 00:54:13;;;;;;;12.37;8.57;;;13.30;1.00;;;;;;8276843;28;20299;-65
2023/07/03 00:58:15;;;;;;;10.30;7.80;;;13.20;1.00;;;;;;8285586;28;20198;-66
2023/07/03 01:02:29;;;;;;;10.60;7.27;;;13.00;1.00;;;;;;8275663;28;20323;-66
2023/07/03 01:06:45;;;;;;;10.47;8.20;;;12.90;1.00;;;;;;8275057;28;20191;-65
2023/07/03 01:10:46;;;;;;;9.77;8.00;;;12.80;1.00;;;;;;8277131;28;20234;-65
2023/07/03 01:14:57;;;;;;;10.23;8.33;;;12.80;1.00;;;;;;8271723;28;20179;-65
2023/07/03 01:19:00;;;;;;;10.50;8.60;;;12.80;6.00;;;;;;8271822;28;20187;-64
2023/07/03 01:23:47;;;;;;;10.50;8.00;;;12.80;24.30;;;;;;8278303;28;20197;-65
2023/07/03 01:27:50;;;;;;;10.67;8.50;;;12.70;39.30;;;;;;8273147;28;20259;-65
2023/07/03 01:31:53;;;;;;;14.67;8.97;;;12.70;48.70;;;;;;8272157;28;20187;-64
2023/07/03 01:35:54;;;;;;;11.80;8.87;;;12.70;63.30;;;;;;8271189;28;20193;-65
2023/07/03 01:39:57;;;;;;;13.90;8.97;;;12.70;64.40;;;;;;8280140;28;20221;-66
2023/07/03 01:44:07;;;;;;;13.40;9.30;;;12.80;56.60;;;;;;8268548;28;20206;-66
2023/07/03 01:48:09;;;;;;;12.57;8.57;;;12.80;95.70;;;;;;8268456;28;20204;-66
2023/07/03 01:52:21;;;;;;;11.43;8.33;;;12.80;74.60;;;;;;8270588;28;20192;-65
2023/07/03 01:56:30;;;;;;;12.90;8.73;;;12.80;56.60;;;;;;8273343;28;20211;-65
2023/07/03 02:01:03;;;;;;;11.17;8.20;;;12.80;63.80;;;;;;8285311;28;20191;-67
2023/07/03 02:05:18;;;;;;;11.83;8.07;;;12.80;45.90;;;;;;8271335;28;20222;-66
2023/07/03 02:09:20;;;;;;;11.10;8.50;;;12.70;59.00;;;;;;8273496;28;20234;-66
2023/07/03 02:13:21;;;;;;;12.67;8.00;;;12.60;99.90;;;;;;8268616;28;20241;-65
2023/07/03 02:17:22;;;;;;;12.13;8.73;;;12.50;99.90;;;;;;8271215;28;20204;-65
2023/07/03 02:21:26;;;;;;;12.53;8.70;;;12.30;99.90;;;;;;8270502;28;20237;-65
2023/07/03 02:25:27;;;;;;;10.40;8.43;;;12.20;99.90;;;;;;8271754;28;20341;-65
2023/07/03 02:29:28;;;;;;;12.40;8.53;;;12.10;99.90;;;;;;8269428;28;20336;-65
2023/07/03 02:33:29;;;;;;;9.90;8.20;;;12.00;99.90;;;;;;8267305;28;20245;-65
2023/07/03 02:37:30;;;;;;;10.47;8.17;;;12.00;1.00;;;;;;8268466;28;20192;-65
2023/07/03 02:41:33;;;;;;;14.73;8.47;;;11.90;1.00;;;;;;8270998;28;20194;-65
2023/07/03 02:45:38;;;;;;;10.40;8.17;;;11.90;1.00;;;;;;8269185;28;20198;-66
2023/07/03 02:49:39;;;;;;;11.80;7.90;;;11.80;13.40;;;;;;8269469;28;20228;-66
2023/07/03 02:53:41;;;;;;;12.27;8.87;;;11.80;99.90;;;;;;8270914;28;20189;-66
2023/07/03 02:57:42;;;;;;;11.87;8.57;;;11.90;99.90;;;;;;8273083;28;20189;-65
2023/07/03 03:01:43;;;;;;;12.07;9.00;;;11.90;99.90;;;;;;8267753;28;20200;-64
2023/07/03 03:05:44;;;;;;;12.43;8.50;;;12.00;99.90;;;;;;8268604;28;20206;-66
2023/07/03 03:09:45;;;;;;;9.80;7.77;;;12.10;99.90;;;;;;8267717;28;20218;-66
2023/07/03 03:13:46;;;;;;;12.83;9.30;;;12.20;99.90;;;;;;8264925;28;20187;-66
2023/07/03 03:17:46;;;;;;;13.77;9.20;;;12.40;99.90;;;;;;8286600;28;20209;-66
2023/07/03 03:21:49;;;;;;;15.00;9.13;;;12.80;44.60;;;;;;8268740;28;20191;-67
2023/07/03 03:25:50;;;;;;;11.13;8.83;;;13.30;1.00;;;;;;8266570;28;20191;-66
2023/07/03 03:29:51;;;;;;;11.30;8.17;;;13.90;99.90;;;;;;8268467;28;20222;-66
2023/07/03 03:33:52;;;;;;;15.07;8.77;;;14.60;1.00;;;;;;8268582;28;20191;-66
2023/07/03 03:37:53;;;;;;;13.77;8.27;;;15.40;99.90;;;;;;8269249;28;20186;-67
2023/07/03 03:41:54;;;;;;;12.33;7.70;;;16.10;99.90;;;;;;8262502;28;20187;-67
2023/07/03 03:45:57;;;;;;;10.90;8.07;;;16.60;99.90;;;;;;8261841;28;20200;-67
2023/07/03 03:49:58;;;;;;;10.73;8.30;;;17.00;96.10;;;;;;8264638;28;20240;-66
2023/07/03 03:53:59;;;;;;;12.03;8.57;;;16.80;62.90;;;;;;8271047;28;20188;-68
2023/07/03 03:57:59;;;;;;;10.83;7.47;;;16.40;64.20;;;;;;8268354;28;20194;-67
2023/07/03 04:02:00;;;;;;;13.27;7.83;;;16.00;93.00;;;;;;8267005;28;20218;-67
2023/07/03 04:06:01;;;;;;;12.63;8.73;;;15.90;99.90;;;;;;8266150;28;20217;-68
2023/07/03 04:10:03;;;;;;;10.80;7.57;;;16.10;99.90;;;;;;8271776;28;20211;-68
2023/07/03 04:14:04;;;;;;;11.67;7.00;;;17.30;79.70;;;;;;8266330;28;20271;-68
2023/07/03 04:18:05;;;;;;;13.77;7.90;;;18.50;1.00;;;;;;8261783;28;20202;-68
2023/07/03 04:22:06;;;;;;;12.83;8.33;;;18.40;1.00;;;;;;8269232;28;20195;-69
2023/07/03 04:26:07;;;;;;;13.77;8.00;;;18.10;1.00;;;;;;8264886;28;20286;-67
2023/07/03 04:30:09;;;;;;;13.70;7.07;;;17.90;1.00;;;;;;8268586;28;20211;-67
2023/07/03 04:34:10;;;;;;;12.80;7.97;;;17.70;1.00;;;;;;8266974;28;20191;-69
2023/07/03 04:38:11;;;;;;;14.87;8.57;;;17.50;1.00;;;;;;8267809;28;20245;-68
2023/07/03 04:42:14;;;;;;;15.17;8.17;;;17.40;1.00;;;;;;8270669;28;20219;-68
2023/07/03 04:46:15;;;;;;;13.77;8.20;;;17.30;1.00;;;;;;8267714;28;20203;-66
2023/07/03 04:50:17;;;;;;;14.77;8.47;;;17.30;1.00;;;;;;8267992;28;20219;-68
2023/07/03 04:54:19;;;;;;;13.17;8.50;;;17.30;1.00;;;;;;8265263;28;20184;-68
2023/07/03 04:58:21;;;;;;;17.63;9.67;;;17.30;1.00;;;;;;8268053;28;20183;-66
2023/07/03 05:02:22;;;;;;;19.63;10.47;;;17.40;1.00;;;;;;8267854;28;20202;-67
2023/07/03 05:06:23;;;;;;;17.23;10.57;;;17.50;1.00;;;;;;8272892;28;20311;-67
2023/07/03 05:10:24;;;;;;;16.60;10.87;;;17.60;1.00;;;;;;8270099;28;20216;-68
2023/07/03 05:14:25;;;;;;;17.17;9.67;;;17.80;1.00;;;;;;8273624;28;20188;-68
2023/07/03 05:18:26;;;;;;;15.93;8.77;;;18.20;1.00;;;;;;8268428;28;20191;-67
2023/07/03 05:22:27;;;;;;;15.00;8.40;;;18.50;1.00;;;;;;8268549;28;20274;-65
2023/07/03 05:26:28;;;;;;;14.73;7.03;;;18.70;1.00;;;;;;8270059;28;20223;-66
2023/07/03 05:30:29;;;;;;;12.60;7.43;;;19.10;1.00;;;;;;8270875;28;20218;-66
2023/07/03 05:34:30;;;;;;;11.23;7.50;;;19.40;1.00;;;;;;8267916;28;20365;-65
2023/07/03 05:38:31;;;;;;;11.13;6.47;;;19.60;1.00;;;;;;8275786;28;20271;-66
2023/07/03 05:42:32;;;;;;;9.10;6.60;;;19.90;1.00;;;;;;8274264;28;20191;-66
2023/07/03 05:46:33;;;;;;;12.97;6.83;;;20.40;1.00;;;;;;8273889;28;20199;-68
2023/07/03 05:50:34;;;;;;;14.33;7.93;;;20.60;1.00;;;;;;8267432;28;20254;-67
2023/07/03 05:54:35;;;;;;;10.23;6.73;;;20.80;1.00;;;;;;8270997;28;20180;-68
2023/07/03 05:58:36;;;;;;;8.97;7.03;;;21.10;1.00;;;;;;8268536;28;20186;-67
2023/07/03 06:02:37;;;;;;;9.93;6.50;;;21.40;1.00;;;;;;8267038;28;20195;-66
2023/07/03 06:06:38;;;;;;;13.90;7.57;;;21.60;1.00;;;;;;8266622;28;20207;-67
2023/07/03 06:10:39;;;;;;;11.40;6.83;;;21.90;1.00;;;;;;8271631;28;20219;-69
2023/07/03 06:14:40;;;;;;;12.73;7.50;;;21.90;1.00;;;;;;8266224;28;20188;-67
2023/07/03 06:18:41;;;;;;;14.00;7.30;;;22.00;1.00;;;;;;8273250;28;20183;-69
2023/07/03 06:22:42;;;;;;;9.63;6.33;;;22.00;1.00;;;;;;8266355;28;20187;-66
2023/07/03 06:26:43;;;;;;;12.73;6.47;;;22.30;1.00;;;;;;8276578;28;20187;-68
2023/07/03 06:30:48;;;;;;;14.00;8.20;;;22.50;1.00;;;;;;8276159;28;20219;-69
2023/07/03 06:34:49;;;;;;;11.60;8.10;;;22.40;1.00;;;;;;8268624;28;20183;-67
2023/07/03 06:38:55;;;;;;;14.87;8.50;;;22.50;1.00;;;;;;8268815;28;20247;-67
2023/07/03 06:42:59;;;;;;;13.40;7.87;;;22.50;1.00;;;;;;8272242;28;20211;-68
2023/07/03 06:47:00;;;;;;;10.03;6.57;;;22.60;1.00;;;;;;8267213;28;20192;-67
2023/07/03 06:51:06;;;;;;;11.33;7.80;;;22.90;1.00;;;;;;8280723;28;20250;-68
2023/07/03 06:55:08;;;;;;;14.50;7.50;;;23.10;1.00;;;;;;8272495;28;20191;-66
2023/07/03 06:59:09;;;;;;;10.53;7.07;;;23.20;1.00;;;;;;8270797;28;20199;-67
2023/07/03 07:03:11;;;;;;;16.63;8.17;;;23.10;1.00;;;;;;8268200;28;20212;-67
2023/07/03 07:07:12;;;;;;;13.37;7.93;;;23.00;1.00;;;;;;8268466;28;20191;-70
2023/07/03 07:11:16;;;;;;;13.07;7.63;;;23.10;1.00;;;;;;8265680;28;20479;-69
2023/07/03 07:15:17;;;;;;;14.67;8.57;;;23.30;1.00;;;;;;8271188;28;20192;-69
2023/07/03 07:19:18;;;;;;;13.67;8.60;;;23.40;1.00;;;;;;8271286;28;20191;-66
2023/07/03 07:23:19;;;;;;;13.23;8.77;;;23.50;1.00;;;;;;8275298;28;20195;-68
2023/07/03 07:27:20;;;;;;;14.67;8.63;;;23.60;1.00;;;;;;8267304;28;20190;-68
2023/07/03 07:31:22;;;;;;;18.73;9.10;;;23.70;1.00;;;;;;8269291;28;20278;-66
2023/07/03 07:35:23;;;;;;;12.07;8.67;;;24.00;1.00;;;;;;8265861;28;20187;-67
2023/07/03 07:39:31;;;;;;;17.23;8.57;;;23.70;1.00;;;;;;8285242;28;20222;-66
2023/07/03 07:43:31;;;;;;;15.90;9.50;;;23.40;1.00;;;;;;8269893;28;20203;-67
2023/07/03 07:47:32;;;;;;;16.07;8.87;;;23.10;1.00;;;;;;8283511;28;20217;-68
2023/07/03 07:51:33;;;;;;;14.73;9.83;;;23.10;1.00;;;;;;8265821;28;20210;-66
2023/07/03 07:55:36;;;;;;;15.83;9.37;;;23.10;1.00;;;;;;8264116;28;20191;-68
2023/07/03 07:59:40;;;;;;;14.47;9.70;;;23.10;1.00;;;;;;8263818;28;20201;-67
2023/07/03 08:03:42;;;;;;;16.00;8.93;;;23.30;1.00;;;;;;8263829;28;20289;-67
2023/07/03 08:07:43;;;;;;;15.53;8.83;;;23.50;1.00;;;;;;8263928;28;20188;-68
2023/07/03 08:11:44;;;;;;;16.67;10.50;;;24.00;1.00;;;;;;8280575;28;20218;-67
2023/07/03 08:15:45;;;;;;;18.30;10.20;;;24.10;1.00;;;;;;8271061;28;20188;-66
2023/07/03 08:19:54;;;;;;;17.50;10.30;;;23.80;1.00;;;;;;8267487;28;20198;-69
2023/07/03 08:23:55;;;;;;;14.73;9.50;;;24.10;1.00;;;;;;8267709;28;20207;-68
2023/07/03 08:27:56;;;;;;;17.37;9.33;;;23.80;1.00;;;;;;8267602;28;20196;-68
2023/07/03 08:31:57;;;;;;;12.57;8.87;;;23.40;1.00;;;;;;8267763;28;20183;-67
2023/07/03 08:35:58;;;;;;;17.10;9.83;;;23.70;1.00;;;;;;8267356;28;20187;-66
2023/07/03 08:39:59;;;;;;;14.73;9.43;;;23.40;1.00;;;;;;8280083;28;20253;-67
2023/07/03 08:44:01;;;;;;;15.37;8.77;;;23.80;1.00;;;;;;8274000;28;20203;-68
2023/07/03 08:48:07;;;;;;;17.47;8.83;;;24.10;1.00;;;;;;8271294;28;20192;-68
2023/07/03 08:52:11;;;;;;;15.77;9.20;;;24.30;1.00;;;;;;8269070;28;20189;-67
2023/07/03 08:56:21;;;;;;;20.03;10.03;;;24.60;1.00;;;;;;8272567;28;20184;-66
2023/07/03 09:00:22;;;;;;;16.80;9.17;;;24.50;1.00;;;;;;8277248;28;20194;-67
2023/07/03 09:04:32;;;;;;;12.50;8.47;;;24.30;1.00;;;;;;8269935;28;20212;-67
2023/07/03 09:09:01;;;;;;;15.47;8.67;;;24.00;1.00;;;;;;8276579;28;20206;-68
2023/07/03 09:13:15;;;;;;;15.93;8.93;;;24.50;1.00;;;;;;8275949;28;20223;-68
2023/07/03 09:17:16;;;;;;;14.77;7.50;;;24.70;1.00;;;;;;8271686;28;20278;-65
2023/07/03 09:21:21;;;;;;;13.83;7.90;;;23.30;1.00;;;;;;8270307;28;20192;-67
2023/07/03 09:25:50;;;;;;;13.60;7.53;;;22.40;1.00;;;;;;8269547;28;20188;-68
2023/07/03 09:29:55;;;;;;;9.93;5.63;;;22.40;1.00;;;;;;8269769;28;20211;-67
2023/07/03 09:33:55;;;;;;;14.53;5.80;;;22.70;1.00;;;;;;8282077;28;20188;-68
2023/07/03 09:38:07;;;;;;;9.73;4.57;;;23.10;1.00;;;;;;8273325;28;20214;-67
2023/07/03 09:42:08;;;;;;;9.97;5.10;;;23.30;1.00;;;;;;8272306;28;20198;-67
2023/07/03 09:46:16;;;;;;;9.37;5.00;;;23.50;1.00;;;;;;8272394;28;20206;-67
2023/07/03 09:50:35;;;;;;;11.43;5.33;;;23.60;1.00;;;;;;8272115;28;20216;-67
2023/07/03 09:54:46;;;;;;;11.87;5.10;;;23.90;1.00;;;;;;8271309;28;20215;-67
2023/07/03 09:58:50;;;;;;;15.30;6.20;;;24.40;1.00;;;;;;8269998;28;20190;-67
2023/07/03 10:02:54;;;;;;;9.53;4.30;;;24.30;1.00;;;;;;8273771;28;20209;-66
2023/07/03 10:07:01;;;;;;;12.20;4.97;;;23.30;99.90;;;;;;8273690;28;20195;-67
2023/07/03 10:11:03;;;;;;;14.60;4.97;;;22.70;99.90;;;;;;8271061;28;20274;-68
2023/07/03 10:15:21;;;;;;;9.40;5.03;;;22.50;1.00;;;;;;8271645;28;20198;-68
2023/07/03 10:19:22;;;;;;;8.80;4.50;;;22.80;1.00;;;;;;8270233;28;20192;-67
2023/07/03 10:23:28;;;;;;;11.47;4.50;;;23.00;1.00;;;;;;8266524;28;20196;-67
2023/07/03 10:27:31;;;;;;;12.93;5.37;;;23.00;99.90;;;;;;8267742;28;20253;-66
2023/07/03 10:31:39;;;;;;;9.00;5.40;;;23.50;99.90;;;;;;8267983;28;20223;-67
2023/07/03 10:35:42;;;;;;;11.83;5.10;;;24.00;1.00;;;;;;8272174;28;20249;-68
2023/07/03 10:39:51;;;;;;;11.70;5.03;;;24.30;99.90;;;;;;8279836;28;20183;-65
2023/07/03 10:43:56;;;;;;;9.00;4.43;;;23.80;99.90;;;;;;8267749;28;20335;-67
2023/07/03 10:48:28;;;;;;;12.37;5.07;;;23.40;99.90;;;;;;8267541;28;20310;-67
2023/07/03 10:52:44;;;;;;;12.10;4.80;;;23.30;1.00;;;;;;8278067;28;20219;-67
2023/07/03 10:56:47;;;;;;;11.80;5.10;;;23.40;1.00;;;;;;8282195;28;20184;-67
2023/07/03 11:01:28;;;;;;;9.57;5.10;;;23.50;1.00;;;;;;8268589;28;20187;-67
2023/07/03 11:05:36;;;;;;;10.47;4.80;;;24.10;99.90;;;;;;8270341;28;20266;-67
2023/07/03 11:09:40;;;;;;;10.50;4.30;;;24.50;99.90;;;;;;8270644;28;20289;-66
2023/07/03 11:13:51;;;;;;;10.03;4.90;;;24.80;99.90;;;;;;8266858;28;20299;-66
2023/07/03 11:18:13;;;;;;;10.17;4.93;;;25.00;99.90;;;;;;8274181;28;20238;-68
2023/07/03 11:22:26;;;;;;;12.87;5.27;;;24.70;99.90;;;;;;8281689;28;20194;-66
2023/07/03 11:26:39;;;;;;;11.00;4.90;;;24.90;99.90;;;;;;8267021;28;20187;-67
2023/07/03 11:30:44;;;;;;;11.30;4.43;;;24.20;99.90;;;;;;8267493;28;20270;-67
2023/07/03 11:34:47;;;;;;;10.10;5.07;;;24.30;99.90;;;;;;8266499;28;20184;-67
2023/07/03 11:39:10;;;;;;;13.33;4.83;;;24.20;99.90;;;;;;8283396;28;20189;-67
2023/07/03 11:43:19;;;;;;;10.53;4.77;;;24.30;99.90;;;;;;8272225;28;20264;-66
2023/07/03 11:47:27;;;;;;;9.10;4.47;;;24.40;99.90;;;;;;8263952;28;20231;-69
2023/07/03 11:51:41;;;;;;;11.20;4.50;;;24.70;99.90;;;;;;8267175;28;20215;-69
2023/07/03 11:55:45;;;;;;;10.27;4.73;;;25.10;99.90;;;;;;8266334;28;20184;-69
2023/07/03 11:59:47;;;;;;;11.73;4.53;;;24.70;99.90;;;;;;8269074;28;20218;-68
2023/07/03 12:03:57;;;;;;;10.27;5.20;;;24.40;99.90;;;;;;8281911;28;20302;-68
2023/07/03 12:07:58;;;;;;;12.10;4.53;;;24.40;99.90;;;;;;8266200;28;20244;-66
2023/07/03 12:11:59;;;;;;;11.07;4.50;;;24.90;99.90;;;;;;8265664;28;20286;-68
2023/07/03 12:16:03;;;;;;;7.78;4.47;;;25.50;99.90;;;;;;8264741;28;20179;-67
2023/07/03 12:20:13;;;;;;;11.80;5.00;;;25.60;99.90;;;;;;8268529;28;20199;-69
2023/07/03 12:24:19;;;;;;;14.23;4.88;;;25.80;99.90;;;;;;8264856;28;20187;-67
2023/07/03 12:28:20;;;;;;;9.20;4.35;;;26.20;99.90;;;;;;8265929;28;20221;-67
2023/07/03 12:32:30;;;;;;;10.90;4.20;;;26.40;99.90;;;;;;8265482;28;20175;-68
2023/07/03 12:36:34;;;;;;;11.48;4.55;;;26.60;99.90;;;;;;8265731;28;20187;-68
2023/07/03 12:40:42;;;;;;;12.70;4.85;;;26.00;99.90;;;;;;8267299;28;20233;-67
2023/07/03 12:44:43;;;;;;;11.13;4.72;;;26.00;99.90;;;;;;8264444;28;20532;-67
2023/07/03 12:48:45;;;;;;;9.77;4.55;;;26.10;99.90;;;;;;8267294;28;20302;-66
2023/07/03 12:52:55;;;;;;;10.63;4.80;;;26.60;99.90;;;;;;8269190;28;20210;-67
2023/07/03 12:56:59;;;;;;;10.38;4.50;;;25.80;99.90;;;;;;8277878;28;20180;-67
2023/07/03 13:01:06;;;;;;;12.38;4.90;;;25.40;99.90;;;;;;8263317;28;20187;-67
2023/07/03 13:05:12;;;;;;;8.10;4.35;;;25.40;99.90;;;;;;8267145;28;20213;-67
2023/07/03 13:09:13;;;;;;;11.25;4.72;;;25.60;99.90;;;;;;8270424;28;20208;-67
2023/07/03 13:13:19;;;;;;;10.00;4.83;;;25.10;99.90;;;;;;8266095;28;20192;-67
2023/07/03 13:17:31;;;;;;;6.97;3.97;;;24.30;99.90;;;;;;8264746;28;20195;-69
2023/07/03 13:21:34;;;;;;;10.47;4.20;;;24.20;99.90;;;;;;8263624;28;20282;-69
2023/07/03 13:25:52;;;;;;;8.20;4.07;;;24.70;99.90;;;;;;8267031;28;20180;-71
2023/07/03 13:30:13;;;;;;;8.07;4.57;;;25.20;99.90;;;;;;8267715;28;20215;-68
2023/07/03 13:34:18;;;;;;;11.20;4.90;;;25.20;99.90;;;;;;8268070;28;20210;-66
2023/07/03 13:38:28;;;;;;;9.10;4.90;;;24.90;99.90;;;;;;8270965;28;20202;-67
2023/07/03 13:42:30;;;;;;;10.40;4.50;;;24.80;99.90;;;;;;8271122;28;20218;-68
2023/07/03 13:46:33;;;;;;;8.70;4.10;;;25.30;99.90;;;;;;8273866;28;20202;-69
2023/07/03 13:50:34;;;;;;;10.03;4.90;;;25.60;99.90;;;;;;8284707;28;20265;-67
2023/07/03 13:54:35;;;;;;;10.30;4.83;;;25.10;99.90;;;;;;8271538;28;20184;-68
2023/07/03 13:58:36;;;;;;;11.33;4.33;;;24.90;99.90;;;;;;8270605;28;20222;-66
2023/07/03 14:02:38;;;;;;;10.10;4.80;;;25.00;99.90;;;;;;8268168;28;20195;-66
2023/07/03 14:06:39;;;;;;;8.73;4.70;;;25.20;99.90;;;;;;8268918;28;20250;-66
2023/07/03 14:10:40;;;;;;;12.93;5.03;;;24.60;99.90;;;;;;8267800;28;20238;-65
2023/07/03 14:14:41;;;;;;;8.43;4.80;;;24.70;99.90;;;;;;8267775;28;20206;-67
2023/07/03 14:18:42;;;;;;;11.50;5.00;;;25.40;99.90;;;;;;8275505;28;20215;-69
2023/07/03 14:22:44;;;;;;;11.57;4.87;;;25.50;99.90;;;;;;8266864;28;20203;-66
2023/07/03 14:26:45;;;;;;;12.10;4.97;;;25.30;99.90;;;;;;8268389;28;20188;-66
2023/07/03 14:30:46;;;;;;;10.77;5.17;;;25.00;99.90;;;;;;8269555;28;20212;-66
2023/07/03 14:34:49;;;;;;;11.20;4.50;;;24.70;99.90;;;;;;8268682;28;20191;-67
2023/07/03 14:38:51;;;;;;;8.97;4.63;;;24.80;99.90;;;;;;8272954;28;20260;-66
2023/07/03 14:42:55;;;;;;;9.23;4.50;;;24.40;99.90;;;;;;8272357;28;20188;-66
2023/07/03 14:46:57;;;;;;;14.67;5.63;;;24.40;99.90;;;;;;8266118;28;20195;-67
2023/07/03 14:50:58;;;;;;;8.23;4.67;;;24.90;99.90;;;;;;8269872;28;20266;-68
2023/07/03 14:54:59;;;;;;;9.53;4.57;;;25.50;99.90;;;;;;8273619;28;20187;-67
2023/07/03 14:59:00;;;;;;;10.23;4.60;;;25.20;99.90;;;;;;8272505;28;20240;-67
2023/07/03 15:03:00;;;;;;;13.43;4.37;;;25.20;99.90;;;;;;8264894;28;20203;-69
2023/07/03 15:07:01;;;;;;;13.63;5.37;;;25.30;99.90;;;;;;8267369;28;20194;-69
2023/07/03 15:11:03;;;;;;;13.73;4.60;;;25.50;99.90;;;;;;8269081;28;20299;-70
2023/07/03 15:15:05;;;;;;;9.63;4.60;;;25.50;99.90;;;;;;8270287;28;20184;-70
2023/07/03 15:19:08;;;;;;;10.10;4.30;;;25.20;99.90;;;;;;8265236;28;20183;-66
2023/07/03 15:23:09;;;;;;;10.15;4.30;;;25.00;99.90;;;;;;8272237;28;20294;-71
2023/07/03 15:27:10;;;;;;;10.60;5.00;;;25.40;99.90;;;;;;8267608;28;20191;-66
2023/07/03 15:31:11;;;;;;;10.63;4.53;;;25.30;99.90;;;;;;8267957;28;20215;-65
2023/07/03 15:35:12;;;;;;;10.45;4.85;;;25.10;99.90;;;;;;8269401;28;20193;-68
2023/07/03 15:39:12;;;;;;;8.75;4.70;;;25.30;99.90;;;;;;8266089;28;20265;-66
2023/07/03 15:43:13;;;;;;;9.88;4.38;;;25.30;99.90;;;;;;8265711;28;20207;-66
2023/07/03 15:47:14;;;;;;;11.37;4.63;;;25.00;99.90;;;;;;8269824;28;20244;-68
2023/07/03 15:51:17;;;;;;;11.20;4.70;;;24.90;99.90;;;;;;8266172;28;20262;-66
2023/07/03 15:55:17;;;;;;;7.33;3.70;;;24.90;99.90;;;;;;8264661;28;20194;-66
2023/07/03 15:59:18;;;;;;;8.10;4.17;;;25.20;99.90;;;;;;8267243;28;20191;-68
2023/07/03 16:03:22;;;;;;;9.00;4.30;;;25.50;99.90;;;;;;8283264;28;20206;-67
2023/07/03 16:07:23;;;;;;;10.53;4.30;;;25.50;99.90;;;;;;8267622;28;20206;-65
2023/07/03 16:11:25;;;;;;;9.40;5.07;;;25.00;99.90;;;;;;8268025;28;20207;-66
2023/07/03 16:15:25;;;;;;;11.83;5.07;;;24.50;99.90;;;;;;8266238;28;20179;-67
2023/07/03 16:19:28;;;;;;;10.03;4.23;;;24.30;99.90;;;;;;8263852;28;20234;-66
2023/07/03 16:23:31;;;;;;;9.13;4.17;;;24.50;99.90;;;;;;8265038;28;20276;-64
2023/07/03 16:27:32;;;;;;;12.13;4.60;;;24.40;99.90;;;;;;8266557;28;20192;-67
2023/07/03 16:31:38;;;;;;;9.67;4.23;;;24.20;99.90;;;;;;8269720;28;20251;-67
2023/07/03 16:35:39;;;;;;;11.80;4.20;;;24.00;99.90;;;;;;8265494;28;20199;-65
2023/07/03 16:39:40;;;;;;;8.70;4.27;;;24.00;99.90;;;;;;8267394;28;20216;-66
2023/07/03 16:43:43;;;;;;;10.70;5.03;;;23.90;99.90;;;;;;8277490;28;20308;-67
2023/07/03 16:47:44;;;;;;;11.80;4.40;;;24.00;99.90;;;;;;8266038;28;20366;-66
2023/07/03 16:51:44;;;;;;;10.90;4.73;;;24.20;99.90;;;;;;8272267;28;20350;-67
2023/07/03 16:55:45;;;;;;;8.57;4.27;;;24.30;99.90;;;;;;8271224;28;20199;-66
2023/07/03 16:59:46;;;;;;;9.33;4.37;;;24.30;99.90;;;;;;8265438;28;20255;-67
2023/07/03 17:03:48;;;;;;;11.13;4.30;;;24.00;99.90;;;;;;8267665;28;20207;-67
2023/07/03 17:07:52;;;;;;;9.20;4.20;;;23.70;99.90;;;;;;8271458;28;20251;-67
2023/07/03 17:11:53;;;;;;;10.40;4.23;;;23.40;99.90;;;;;;8271450;28;20238;-67
2023/07/03 17:15:54;;;;;;;9.80;4.40;;;23.30;99.90;;;;;;8271157;28;20188;-66
2023/07/03 17:19:55;;;;;;;9.23;3.93;;;23.10;99.90;;;;;;8272768;28;20201;-66
2023/07/03 17:24:02;;;;;;;11.83;4.40;;;23.20;99.90;;;;;;8273419;28;20187;-67
2023/07/03 17:28:07;;;;;;;9.20;4.27;;;23.00;99.90;;;;;;8275804;28;20191;-66
2023/07/03 17:32:10;;;;;;;8.57;3.93;;;22.70;99.90;;;;;;8273132;28;20221;-67
2023/07/03 17:36:10;;;;;;;7.30;3.57;;;22.60;99.90;;;;;;8273140;28;20210;-67
2023/07/03 17:40:12;;;;;;;10.80;4.50;;;22.50;99.90;;;;;;8269157;28;20233;-67
2023/07/03 17:44:15;;;;;;;13.23;3.97;;;22.40;99.90;;;;;;8283414;28;20207;-64
2023/07/03 17:48:16;;;;;;;12.80;4.53;;;22.40;99.90;;;;;;8272727;28;20188;-65
2023/07/03 17:52:18;;;;;;;6.57;3.80;;;22.30;99.90;;;;;;8288142;28;20194;-65
2023/07/03 17:56:20;;;;;;;10.67;3.70;;;22.10;99.90;;;;;;8266670;28;20274;-67
2023/07/03 18:00:21;;;;;;;13.90;3.70;;;22.00;99.90;;;;;;8272752;28;20191;-66
2023/07/03 18:04:23;;;;;;;7.83;3.90;;;22.00;99.90;;;;;;8268663;28;20220;-66
2023/07/03 18:08:24;;;;;;;9.03;3.73;;;21.90;99.90;;;;;;8281544;28;20222;-67
2023/07/03 18:12:25;;;;;;;8.03;3.37;;;21.80;99.90;;;;;;8273672;28;20188;-67
2023/07/03 18:16:26;;;;;;;7.83;3.57;;;21.80;99.90;;;;;;8268367;28;20276;-67
2023/07/03 18:20:27;;;;;;;10.27;3.30;;;21.70;99.90;;;;;;8268632;28;20191;-67
2023/07/03 18:24:29;;;;;;;8.43;3.30;;;21.60;99.90;;;;;;8268267;28;20195;-66
2023/07/03 18:28:32;;;;;;;8.77;3.20;;;21.60;99.90;;;;;;8277105;28;20187;-67
2023/07/03 18:32:34;;;;;;;7.13;3.10;;;21.50;99.90;;;;;;8270689;28;20489;-67
2023/07/03 18:36:39;;;;;;;10.47;3.00;;;21.40;99.90;;;;;;8268830;28;20188;-67
2023/07/03 18:40:40;;;;;;;5.43;3.13;;;21.30;99.90;;;;;;8282081;28;20235;-65
2023/07/03 18:44:41;;;;;;;9.60;3.10;;;21.20;99.90;;;;;;8270454;28;20253;-67
2023/07/03 18:48:42;;;;;;;10.23;2.90;;;21.20;99.90;;;;;;8274279;28;20239;-66
2023/07/03 18:52:43;;;;;;;7.37;3.20;;;21.20;99.90;;;;;;8269979;28;20183;-67
2023/07/03 18:56:47;;;;;;;12.50;3.47;;;21.20;99.90;;;;;;8267844;28;20188;-67
2023/07/03 19:00:49;;;;;;;7.37;3.23;;;21.30;99.90;;;;;;8265590;28;20207;-67
2023/07/03 19:04:52;;;;;;;7.50;3.03;;;21.20;99.90;;;;;;8264585;28;20241;-66
2023/07/03 19:08:53;;;;;;;6.70;2.63;;;21.00;99.90;;;;;;8268911;28;20207;-66
2023/07/03 19:12:54;;;;;;;6.60;2.53;;;20.80;99.90;;;;;;8264722;28;20184;-66
2023/07/03 19:16:55;;;;;;;8.33;2.97;;;20.70;99.90;;;;;;8266962;28;20176;-67
2023/07/03 19:20:59;;;;;;;10.80;2.77;;;20.60;99.90;;;;;;8266835;28;20190;-67
2023/07/03 19:25:00;;;;;;;4.93;2.43;;;20.50;99.90;;;;;;8269262;28;20182;-67
2023/07/03 19:29:01;;;;;;;7.17;2.47;;;20.30;99.90;;;;;;8267068;28;20203;-66
2023/07/03 19:33:02;;;;;;;7.23;2.80;;;20.20;99.90;;;;;;8271439;28;20179;-66
2023/07/03 19:37:04;;;;;;;7.13;2.60;;;20.00;99.90;;;;;;8284267;28;20187;-64
2023/07/03 19:41:09;;;;;;;6.03;2.40;;;20.00;99.90;;;;;;8267122;28;20187;-64
2023/07/03 19:45:11;;;;;;;6.47;2.17;;;19.90;99.90;;;;;;8274391;28;20209;-65
2023/07/03 19:49:15;;;;;;;8.30;2.50;;;19.90;99.90;;;;;;8267079;28;20235;-65
2023/07/03 19:53:16;;;;;;;4.97;2.30;;;19.80;99.90;;;;;;8271217;28;20186;-65
2023/07/03 19:57:17;;;;;;;4.47;2.20;;;19.70;99.90;;;;;;8279590;28;20184;-64
2023/07/03 20:01:19;;;;;;;3.97;2.07;;;19.60;99.90;;;;;;8263920;28;20282;-64
2023/07/03 20:05:21;;;;;;;4.73;2.37;;;19.40;99.90;;;;;;8266308;28;20333;-64
2023/07/03 20:09:26;;;;;;;3.30;1.73;;;19.20;99.90;;;;;;8267770;28;20239;-64
2023/07/03 20:13:28;;;;;;;3.67;2.00;;;19.00;1.00;;;;;;8266218;28;20272;-64
2023/07/03 20:17:30;;;;;;;3.63;2.07;;;18.80;1.00;;;;;;8273950;28;20184;-63
2023/07/03 20:21:34;;;;;;;4.60;2.33;;;18.60;1.00;;;;;;8267541;28;20184;-64
2023/07/03 20:25:38;;;;;;;5.17;2.30;;;18.40;1.00;;;;;;8267634;28;20202;-63
2023/07/03 20:29:39;;;;;;;5.33;2.50;;;18.10;1.00;;;;;;8269362;28;20230;-64
2023/07/03 20:33:40;;;;;;;5.37;2.20;;;17.90;1.00;;;;;;8263782;28;20190;-64
2023/07/03 20:37:43;;;;;;;5.00;2.33;;;17.70;1.00;;;;;;8271759;28;20191;-64
2023/07/03 20:41:48;;;;;;;4.40;2.10;;;17.50;1.00;;;;;;8271429;28;20272;-64
2023/07/03 20:46:04;;;;;;;3.97;2.00;;;17.30;1.00;;;;;;8272893;28;20202;-64
2023/07/03 20:50:05;;;;;;;3.47;2.17;;;17.10;1.00;;;;;;8276833;28;20279;-64
2023/07/03 20:54:21;;;;;;;3.10;1.87;;;17.00;1.00;;;;;;8271998;28;20187;-64
2023/07/03 20:58:22;;;;;;;4.57;2.23;;;16.80;1.00;;;;;;8269208;28;20202;-64
2023/07/03 21:02:22;;;;;;;4.63;2.00;;;16.70;1.00;;;;;;8270914;28;20187;-64